Terminal Aerodrome Forecast
Issued by NWS Melbourne, FL

Home | Current Version | Previous Version | Text Only | Print | Product List | Glossary On
Versions: 1 2 3 4 5 6 7 8 9 10 11 12 13 14 15 16 17 18 19 20 21 22 23 24 25 26 27 28 29
000
FTUS42 KMLB 271018 AAA
TAFMCO
TAF AMD
KMCO 271018Z 2710/2806 VRB03KT P6SM FEW030 SCT250
     FM271400 24004KT P6SM SCT025
     FM271800 25004KT P6SM SCT040 SCT200
     FM272000 25006KT P6SM VCTS SCT035CB BKN060
     FM280000 23004KT P6SM SCT040 SCT120 SCT200=

USA.gov is the U.S. government's official web portal to all federal, state and local government web resources and services.